createdAt,value
2018-03-20T00:02:01.678Z,12.23
2018-03-20T00:04:29.184Z,12.40
2018-03-20T00:06:56.675Z,13.47
2018-03-20T00:09:24.186Z,13.50
2018-03-20T00:11:51.667Z,12.73
2018-03-20T00:14:27.318Z,11.93
2018-03-20T00:16:54.808Z,13.70
2018-03-20T00:19:22.325Z,12.20
2018-03-20T00:21:49.810Z,13.20
2018-03-20T00:24:18.084Z,12.90
2018-03-20T00:26:45.576Z,13.70
2018-03-20T00:29:13.850Z,12.27
2018-03-20T00:31:41.348Z,13.00
2018-03-20T00:34:08.860Z,12.30
2018-03-20T00:36:36.349Z,12.57
2018-03-20T00:39:03.859Z,12.47
2018-03-20T00:41:31.355Z,13.93
2018-03-20T00:43:58.864Z,11.13
2018-03-20T00:46:26.356Z,12.53
2018-03-20T00:48:54.636Z,11.30
2018-03-20T00:51:22.891Z,11.30
2018-03-20T00:53:50.396Z,11.50
2018-03-20T00:56:18.663Z,13.20
2018-03-20T00:58:46.163Z,11.47
2018-03-20T01:01:14.592Z,12.60
2018-03-20T01:03:42.101Z,11.50
2018-03-20T01:06:09.592Z,11.57
2018-03-20T01:08:37.867Z,12.63
2018-03-20T01:11:05.379Z,11.80
2018-03-20T01:13:32.895Z,10.17
2018-03-20T01:16:00.380Z,11.83
2018-03-20T01:18:28.656Z,11.27
2018-03-20T01:20:56.146Z,12.23
2018-03-20T01:23:24.430Z,11.70
2018-03-20T01:25:52.684Z,11.37
2018-03-20T01:28:23.630Z,11.43
2018-03-20T01:30:51.141Z,11.30
2018-03-20T01:33:19.387Z,9.80
2018-03-20T01:35:46.899Z,10.30
2018-03-20T01:38:15.151Z,9.20
2018-03-20T01:40:42.643Z,9.20
2018-03-20T01:43:10.131Z,10.67
2018-03-20T01:45:37.639Z,9.37
2018-03-20T01:48:05.127Z,9.03
2018-03-20T01:50:32.628Z,9.70
2018-03-20T01:56:02.428Z,9.50
2018-03-20T01:58:30.679Z,9.13
2018-03-20T02:00:58.176Z,9.70
2018-03-20T02:03:25.662Z,10.03
2018-03-20T02:05:53.173Z,9.33
2018-03-20T02:08:20.673Z,8.70
2018-03-20T02:10:48.960Z,10.30
2018-03-20T02:13:17.215Z,12.40
2018-03-20T02:15:44.722Z,9.97
2018-03-20T02:18:12.980Z,10.90
2018-03-20T02:20:40.493Z,9.73
2018-03-20T02:23:07.985Z,9.57
2018-03-20T02:25:35.495Z,9.30
2018-03-20T02:28:02.985Z,8.77
2018-03-20T02:30:31.270Z,9.30
2018-03-20T02:32:59.534Z,9.83
2018-03-20T02:35:27.051Z,9.03
2018-03-20T02:37:54.549Z,8.63
2018-03-20T02:40:22.069Z,9.70
2018-03-20T02:42:50.325Z,9.67
2018-03-20T02:45:17.835Z,8.83
2018-03-20T02:47:48.020Z,8.90
2018-03-20T02:50:15.528Z,9.63
2018-03-20T02:52:43.015Z,9.07
2018-03-20T02:55:11.293Z,8.20
2018-03-20T02:57:38.791Z,9.20
2018-03-20T03:00:06.290Z,9.53
2018-03-20T03:02:33.805Z,9.30
2018-03-20T03:05:02.064Z,8.33
2018-03-20T03:07:29.580Z,8.87
2018-03-20T03:09:57.082Z,7.50
2018-03-20T03:12:24.597Z,8.97
2018-03-20T03:14:52.094Z,8.33
2018-03-20T03:17:19.609Z,9.40
2018-03-20T03:19:47.093Z,9.30
2018-03-20T03:22:14.600Z,8.53
2018-03-20T03:24:42.097Z,9.20
2018-03-20T03:27:09.600Z,7.50
2018-03-20T03:29:37.089Z,7.57
2018-03-20T03:32:04.600Z,8.63
2018-03-20T03:34:32.148Z,7.90
2018-03-20T03:36:59.613Z,7.47
2018-03-20T03:39:27.873Z,7.10
2018-03-20T03:41:55.381Z,8.20
2018-03-20T03:44:22.873Z,7.03
2018-03-20T03:46:50.383Z,8.37
2018-03-20T03:49:17.872Z,8.20
2018-03-20T03:51:46.153Z,8.10
2018-03-20T03:54:14.610Z,6.83
2018-03-20T03:56:42.116Z,8.00
2018-03-20T03:59:09.601Z,6.90
2018-03-20T04:01:37.115Z,7.00
2018-03-20T04:04:04.609Z,7.33
2018-03-20T04:06:32.109Z,8.10
2018-03-20T04:09:00.389Z,8.20
2018-03-20T04:11:27.886Z,10.10
2018-03-20T04:13:55.398Z,8.90
2018-03-20T04:16:22.888Z,8.33
2018-03-20T04:18:50.406Z,8.33
2018-03-20T04:21:17.904Z,9.17
2018-03-20T04:23:45.422Z,10.00
2018-03-20T04:26:13.681Z,9.00
2018-03-20T04:28:41.193Z,10.10
2018-03-20T04:31:08.685Z,8.70
2018-03-20T04:33:36.190Z,9.07
2018-03-20T04:36:03.688Z,8.40
2018-03-20T04:38:31.970Z,10.27
2018-03-20T04:41:00.229Z,9.07
2018-03-20T04:43:27.744Z,8.83
2018-03-20T04:45:56.001Z,9.60
2018-03-20T04:48:23.513Z,9.23
2018-03-20T04:50:50.996Z,9.77
2018-03-20T04:53:19.435Z,9.20
2018-03-20T04:55:46.929Z,9.17
2018-03-20T04:58:15.181Z,8.53
2018-03-20T05:00:42.688Z,11.70
2018-03-20T05:03:10.945Z,11.13
2018-03-20T05:05:38.453Z,9.40
2018-03-20T05:08:06.701Z,8.77
2018-03-20T05:10:34.205Z,9.53
2018-03-20T05:13:02.461Z,9.97
2018-03-20T05:15:29.972Z,8.93
2018-03-20T05:17:58.229Z,8.20
2018-03-20T05:20:31.483Z,9.37
2018-03-20T05:23:11.818Z,9.30
2018-03-20T05:25:39.338Z,10.20
2018-03-20T05:28:06.829Z,10.40
2018-03-20T05:30:34.344Z,11.30
2018-03-20T05:33:02.612Z,12.83
2018-03-20T05:35:30.133Z,12.40
2018-03-20T05:37:58.391Z,11.40
2018-03-20T05:40:26.676Z,9.97
2018-03-20T05:42:54.173Z,9.90
2018-03-20T05:45:21.661Z,12.33
2018-03-20T05:47:51.782Z,10.20
2018-03-20T05:50:25.156Z,10.87
2018-03-20T05:52:52.744Z,10.90
2018-03-20T05:55:20.249Z,10.70
2018-03-20T05:57:48.644Z,10.43
2018-03-20T06:00:16.134Z,10.37
2018-03-20T06:02:43.640Z,9.70
2018-03-20T06:05:11.141Z,10.07
2018-03-20T06:07:38.653Z,9.50
2018-03-20T06:10:06.144Z,10.57
2018-03-20T06:12:34.419Z,9.43
2018-03-20T06:15:01.912Z,11.27
2018-03-20T06:17:29.429Z,9.57
2018-03-20T06:19:56.916Z,10.60
2018-03-20T06:22:24.435Z,8.90
2018-03-20T06:24:51.926Z,8.77
2018-03-20T06:27:19.442Z,9.90
2018-03-20T06:29:47.697Z,9.50
2018-03-20T06:32:15.213Z,11.33
2018-03-20T06:34:43.464Z,9.73
2018-03-20T06:37:10.987Z,10.53
2018-03-20T06:39:38.472Z,9.87
2018-03-20T06:42:05.997Z,9.33
2018-03-20T06:44:33.485Z,9.60
2018-03-20T06:47:01.765Z,10.00
2018-03-20T06:49:30.029Z,10.20
2018-03-20T06:51:57.536Z,9.60
2018-03-20T06:54:25.788Z,10.20
2018-03-20T06:56:53.298Z,10.80
2018-03-20T06:59:20.795Z,9.50
2018-03-20T07:01:48.284Z,10.37
2018-03-20T07:04:15.797Z,9.17
2018-03-20T07:06:44.960Z,10.83
2018-03-20T07:09:12.473Z,10.43
2018-03-20T07:11:40.735Z,10.00
2018-03-20T07:14:08.248Z,12.33
2018-03-20T07:16:35.740Z,9.97
2018-03-20T07:19:03.257Z,11.70
2018-03-20T07:21:30.752Z,11.90
2018-03-20T07:23:58.281Z,9.77
2018-03-20T07:26:25.772Z,10.53
2018-03-20T07:28:53.285Z,10.50
2018-03-20T07:31:20.793Z,10.63
2018-03-20T07:33:48.302Z,10.20
2018-03-20T07:36:16.568Z,10.27
2018-03-20T07:38:44.085Z,10.70
2018-03-20T07:41:11.589Z,13.90
2018-03-20T07:43:39.096Z,10.27
2018-03-20T07:46:06.635Z,11.40
2018-03-20T07:48:34.946Z,10.87
2018-03-20T07:51:02.436Z,9.80
2018-03-20T07:53:30.725Z,9.80
2018-03-20T07:55:58.217Z,9.30
2018-03-20T07:58:25.713Z,9.70
2018-03-20T08:00:53.215Z,9.50
2018-03-20T08:03:20.726Z,11.00
2018-03-20T08:05:48.264Z,7.70
2018-03-20T08:08:15.749Z,8.63
2018-03-20T08:10:43.260Z,8.37
2018-03-20T08:13:10.798Z,9.00
2018-03-20T08:15:39.069Z,8.30
2018-03-20T08:18:07.321Z,9.10
2018-03-20T08:20:34.870Z,8.90
2018-03-20T08:23:02.357Z,9.90
2018-03-20T08:25:29.864Z,9.20
2018-03-20T08:27:58.120Z,9.80
2018-03-20T08:30:25.790Z,8.60
2018-03-20T08:32:53.281Z,8.70
2018-03-20T08:35:20.801Z,10.30
2018-03-20T08:37:49.062Z,22.50
2018-03-20T08:40:17.360Z,10.23
2018-03-20T08:42:44.868Z,10.30
2018-03-20T08:45:12.385Z,11.03
2018-03-20T08:47:40.672Z,10.80
2018-03-20T08:50:08.949Z,14.20
2018-03-20T08:52:36.659Z,9.40
2018-03-20T08:55:04.161Z,11.20
2018-03-20T08:57:31.677Z,9.57
2018-03-20T09:00:01.869Z,8.93
2018-03-20T09:02:34.003Z,8.43
2018-03-20T09:05:01.492Z,8.50
2018-03-20T09:07:29.020Z,9.27
2018-03-20T09:09:56.509Z,8.67
2018-03-20T09:12:24.839Z,7.67
2018-03-20T09:14:52.322Z,7.80
2018-03-20T09:17:19.841Z,7.80
2018-03-20T09:19:48.093Z,8.40
2018-03-20T09:22:15.604Z,7.60
2018-03-20T09:24:43.088Z,8.20
2018-03-20T09:27:10.657Z,7.90
2018-03-20T09:29:38.104Z,9.07
2018-03-20T09:32:06.390Z,7.83
2018-03-20T09:34:34.658Z,8.03
2018-03-20T09:37:02.173Z,8.73
2018-03-20T09:39:29.660Z,8.73
2018-03-20T09:41:57.182Z,7.40
2018-03-20T09:44:24.682Z,7.20
2018-03-20T09:46:52.186Z,7.43
2018-03-20T09:49:19.715Z,7.77
2018-03-20T09:51:47.208Z,8.70
2018-03-20T09:54:14.738Z,7.80
2018-03-20T09:56:42.999Z,6.90
2018-03-20T09:59:10.504Z,6.90
2018-03-20T10:01:38.809Z,7.40
2018-03-20T10:04:06.347Z,7.50
2018-03-20T10:06:33.856Z,7.40
2018-03-20T10:09:02.273Z,7.87
2018-03-20T10:11:29.764Z,6.77
2018-03-20T10:13:57.274Z,7.17
2018-03-20T10:16:25.529Z,6.93
2018-03-20T10:18:53.044Z,7.40
2018-03-20T10:21:20.549Z,6.80
2018-03-20T10:23:48.061Z,7.93
2018-03-20T10:26:16.331Z,8.20
2018-03-20T10:28:44.621Z,7.93
2018-03-20T10:31:12.116Z,8.37
2018-03-20T10:33:40.406Z,8.03
2018-03-20T10:36:08.658Z,8.00
2018-03-20T10:38:36.178Z,9.33
2018-03-20T10:41:03.670Z,8.03
2018-03-20T10:43:31.193Z,8.53
2018-03-20T10:45:59.461Z,8.90
2018-03-20T10:48:26.974Z,8.20
2018-03-20T10:50:54.481Z,9.70
2018-03-20T10:53:23.912Z,9.50
2018-03-20T10:55:51.465Z,9.57
2018-03-20T10:58:18.966Z,7.80
2018-03-20T11:00:48.280Z,8.40
2018-03-20T11:03:15.785Z,8.30
2018-03-20T11:05:43.317Z,7.97
2018-03-20T11:08:10.822Z,8.03
2018-03-20T11:10:38.345Z,7.63
2018-03-20T11:13:05.833Z,6.97
2018-03-20T11:15:33.346Z,7.50
2018-03-20T11:18:01.604Z,9.37
2018-03-20T11:20:29.880Z,7.40
2018-03-20T11:22:57.382Z,8.50
2018-03-20T11:25:24.905Z,8.00
2018-03-20T11:27:52.408Z,7.40
2018-03-20T11:30:20.693Z,7.80
2018-03-20T11:32:53.765Z,8.90
2018-03-20T11:35:21.276Z,8.07
2018-03-20T11:37:48.787Z,7.30
2018-03-20T11:40:16.309Z,9.20
2018-03-20T11:42:44.560Z,7.77
2018-03-20T11:45:12.094Z,8.37
2018-03-20T11:47:39.588Z,10.17
2018-03-20T11:50:07.071Z,8.23
2018-03-20T11:52:34.580Z,8.23
2018-03-20T11:55:02.828Z,7.40
2018-03-20T11:57:30.342Z,9.43
2018-03-20T11:59:58.596Z,9.60
2018-03-20T12:02:26.117Z,7.73
2018-03-20T12:04:53.599Z,8.77
2018-03-20T12:07:21.109Z,7.33
2018-03-20T12:09:48.601Z,9.30
2018-03-20T12:12:16.881Z,8.90
2018-03-20T12:14:44.380Z,8.30
2018-03-20T12:17:11.900Z,8.80
2018-03-20T12:19:39.407Z,9.90
2018-03-20T12:22:07.666Z,8.67
2018-03-20T12:24:35.181Z,9.60
2018-03-20T12:27:02.681Z,9.17
2018-03-20T12:29:30.209Z,8.20
2018-03-20T12:31:58.476Z,9.63
2018-03-20T12:34:25.989Z,8.50
2018-03-20T12:36:53.486Z,8.77
2018-03-20T12:39:21.013Z,11.40
2018-03-20T12:41:48.528Z,10.40
2018-03-20T12:44:17.960Z,9.87
2018-03-20T12:46:45.591Z,8.53
2018-03-20T12:49:13.017Z,9.90
2018-03-20T12:51:40.538Z,9.50
2018-03-20T12:54:08.033Z,9.87
2018-03-20T12:56:35.550Z,9.70
2018-03-20T12:59:03.813Z,9.20
2018-03-20T13:01:31.458Z,9.40
2018-03-20T13:03:58.957Z,9.27
2018-03-20T13:06:26.460Z,9.63
2018-03-20T13:08:54.717Z,9.57
2018-03-20T13:11:22.227Z,10.80
2018-03-20T13:13:49.712Z,9.80
2018-03-20T13:16:17.224Z,10.03
2018-03-20T13:18:44.716Z,9.33
2018-03-20T13:21:14.328Z,9.20
2018-03-20T13:23:41.874Z,12.27
2018-03-20T13:26:10.667Z,10.93
2018-03-20T13:28:38.172Z,9.50
2018-03-20T13:31:05.672Z,9.43
2018-03-20T13:33:33.192Z,10.03
2018-03-20T13:36:00.687Z,15.23
2018-03-20T13:38:28.977Z,10.20
2018-03-20T13:40:57.232Z,9.23
2018-03-20T13:43:24.746Z,9.53
2018-03-20T13:45:53.017Z,9.20
2018-03-20T13:48:33.242Z,9.30
2018-03-20T13:51:00.744Z,9.17
2018-03-20T13:53:28.252Z,8.30
2018-03-20T13:55:55.747Z,8.27
2018-03-20T13:58:23.252Z,9.00
2018-03-20T14:00:50.749Z,20.40
2018-03-20T14:03:18.284Z,11.97
2018-03-20T14:05:45.777Z,8.70
2018-03-20T14:08:13.296Z,8.33
2018-03-20T14:10:40.793Z,8.53
2018-03-20T14:13:08.311Z,7.80
2018-03-20T14:15:35.861Z,7.70
2018-03-20T14:18:04.137Z,9.57
2018-03-20T14:20:31.644Z,8.17
2018-03-20T14:22:59.136Z,9.60
2018-03-20T14:25:26.677Z,8.90
2018-03-20T14:27:54.939Z,8.70
2018-03-20T14:30:22.457Z,9.03
2018-03-20T14:32:49.944Z,9.10
2018-03-20T14:35:17.453Z,8.63
2018-03-20T14:37:44.950Z,9.13
2018-03-20T14:40:13.243Z,8.83
2018-03-20T14:42:41.498Z,8.47
2018-03-20T14:45:09.016Z,9.20
2018-03-20T14:47:36.881Z,9.53
2018-03-20T14:50:04.411Z,9.17
2018-03-20T14:52:31.905Z,9.00
2018-03-20T14:55:00.198Z,8.27
2018-03-20T14:57:27.680Z,8.97
2018-03-20T14:59:55.172Z,9.40
2018-03-20T15:02:22.681Z,9.30
2018-03-20T15:04:50.175Z,8.40
2018-03-20T15:07:18.506Z,9.30
2018-03-20T15:09:45.963Z,9.60
2018-03-20T15:12:13.472Z,9.00
2018-03-20T15:14:40.967Z,9.33
2018-03-20T15:17:09.252Z,8.73
2018-03-20T15:19:36.732Z,9.37
2018-03-20T15:22:05.023Z,13.20
2018-03-20T15:24:33.277Z,9.93
2018-03-20T15:27:00.793Z,9.67
2018-03-20T15:29:29.052Z,8.70
2018-03-20T15:31:56.566Z,8.50
2018-03-20T15:34:24.062Z,8.63
2018-03-20T15:36:51.560Z,10.10
2018-03-20T15:39:19.070Z,9.50
2018-03-20T15:41:52.797Z,9.57
2018-03-20T15:44:21.076Z,10.07
2018-03-20T15:46:48.568Z,11.00
2018-03-20T15:49:16.085Z,9.73
2018-03-20T15:51:43.580Z,10.23
2018-03-20T15:54:11.859Z,11.33
2018-03-20T15:56:40.112Z,11.80
2018-03-20T15:59:07.625Z,11.63
2018-03-20T16:01:35.131Z,9.83
2018-03-20T16:04:02.658Z,17.83
2018-03-20T16:06:30.921Z,12.67
2018-03-20T16:08:58.422Z,10.47
2018-03-20T16:11:26.717Z,11.10
2018-03-20T16:13:54.216Z,10.83
2018-03-20T16:16:21.740Z,11.17
2018-03-20T16:18:49.998Z,10.30
2018-03-20T16:21:17.508Z,10.40
2018-03-20T16:23:45.769Z,10.03
2018-03-20T16:26:13.282Z,9.93
2018-03-20T16:28:40.777Z,11.60
2018-03-20T16:31:08.294Z,8.73
2018-03-20T16:33:36.558Z,9.43
2018-03-20T16:36:04.075Z,8.07
2018-03-20T16:41:34.592Z,9.10
2018-03-20T16:44:02.089Z,10.57
2018-03-20T16:46:29.596Z,9.60
2018-03-20T16:48:57.100Z,31.47
2018-03-20T16:51:24.625Z,24.43
2018-03-20T16:54:09.795Z,18.83
2018-03-20T16:56:37.330Z,10.33
2018-03-20T16:59:04.828Z,9.90
2018-03-20T17:01:32.341Z,9.43
2018-03-20T17:03:59.839Z,8.60
2018-03-20T17:06:28.172Z,8.80
2018-03-20T17:11:49.031Z,9.13
2018-03-20T17:14:17.283Z,9.53
2018-03-20T17:16:44.808Z,9.13
2018-03-20T17:19:12.299Z,8.97
2018-03-20T17:21:40.602Z,8.50
2018-03-20T17:24:08.153Z,8.27
2018-03-20T17:26:35.652Z,7.97
2018-03-20T17:29:03.142Z,8.33
2018-03-20T17:31:30.654Z,8.60
2018-03-20T17:33:58.169Z,8.73
2018-03-20T17:36:25.669Z,17.73
2018-03-20T17:38:53.219Z,15.03
2018-03-20T17:41:20.688Z,9.90
2018-03-20T17:43:48.192Z,9.27
2018-03-20T17:46:15.733Z,9.27
2018-03-20T17:48:43.212Z,9.27
2018-03-20T17:51:11.473Z,8.80
2018-03-20T17:53:38.992Z,9.20
2018-03-20T17:56:06.487Z,8.70
2018-03-20T17:58:34.012Z,8.97
2018-03-20T18:01:02.298Z,8.27
2018-03-20T18:03:29.797Z,9.20
2018-03-20T18:05:57.289Z,9.20
2018-03-20T18:08:24.792Z,9.57
2018-03-20T18:10:52.281Z,17.23
2018-03-20T18:13:19.801Z,70.20
2018-03-20T18:15:47.302Z,20.33
2018-03-20T18:18:14.808Z,11.50
2018-03-20T18:20:43.066Z,10.73
2018-03-20T18:26:04.821Z,9.03
2018-03-20T18:28:32.348Z,10.57
2018-03-20T18:30:59.864Z,10.90
2018-03-20T18:33:27.370Z,12.37
2018-03-20T18:35:55.656Z,11.10
2018-03-20T18:38:23.932Z,16.50
2018-03-20T18:40:52.228Z,16.63
2018-03-20T18:43:19.721Z,17.17
2018-03-20T18:45:47.237Z,16.97
2018-03-20T18:48:14.741Z,18.20
2018-03-20T18:50:43.020Z,19.50
2018-03-20T18:53:10.524Z,16.20
2018-03-20T18:55:38.049Z,15.47
2018-03-20T18:58:05.553Z,15.07
2018-03-20T19:00:33.858Z,18.00
2018-03-20T19:03:01.359Z,15.83
2018-03-20T19:05:28.868Z,41.77
2018-03-20T19:07:56.412Z,46.10
2018-03-20T19:10:23.878Z,27.03
2018-03-20T19:12:51.399Z,25.30
2018-03-20T19:15:18.906Z,20.73
2018-03-20T19:17:46.426Z,14.23
2018-03-20T19:20:14.789Z,12.23
2018-03-20T19:22:42.995Z,14.73
2018-03-20T19:25:11.296Z,14.70
2018-03-20T19:27:39.584Z,14.10
2018-03-20T19:30:07.842Z,14.40
2018-03-20T19:32:35.362Z,14.90
2018-03-20T19:35:09.802Z,15.50
2018-03-20T19:37:37.319Z,15.13
2018-03-20T19:40:04.819Z,16.50
2018-03-20T19:42:33.110Z,16.80
2018-03-20T19:45:01.387Z,17.20
2018-03-20T19:47:29.676Z,16.83
2018-03-20T19:49:57.185Z,17.60
2018-03-20T19:52:24.704Z,14.83
2018-03-20T19:54:52.192Z,14.37
2018-03-20T19:57:31.177Z,13.20
2018-03-20T19:59:58.681Z,13.33
2018-03-20T20:02:26.177Z,13.80
2018-03-20T20:04:54.455Z,13.90
2018-03-20T20:07:21.945Z,15.10
2018-03-20T20:09:50.221Z,15.00
2018-03-20T20:12:18.490Z,14.70
2018-03-20T20:14:52.997Z,15.13
2018-03-20T20:17:20.498Z,14.63
2018-03-20T20:19:48.020Z,15.87
2018-03-20T20:22:15.519Z,14.73
2018-03-20T20:24:43.037Z,17.57
2018-03-20T20:27:11.310Z,19.60
2018-03-20T20:29:38.841Z,20.17
2018-03-20T20:32:06.333Z,19.53
2018-03-20T20:34:33.864Z,19.03
2018-03-20T20:37:01.357Z,19.50
2018-03-20T20:39:28.880Z,19.73
2018-03-20T20:41:57.181Z,20.43
2018-03-20T20:44:24.699Z,19.43
2018-03-20T20:46:52.206Z,51.83
2018-03-20T20:49:20.458Z,52.03
2018-03-20T20:51:47.970Z,21.80
2018-03-20T20:54:15.478Z,20.83
2018-03-20T20:56:43.009Z,20.50
2018-03-20T20:59:11.269Z,25.37
2018-03-20T21:01:38.795Z,23.90
2018-03-20T21:04:06.294Z,19.10
2018-03-20T21:06:33.813Z,18.50
2018-03-20T21:09:01.299Z,16.67
2018-03-20T21:11:28.799Z,15.50
2018-03-20T21:13:56.316Z,16.00
2018-03-20T21:16:24.577Z,15.73
2018-03-20T21:18:52.173Z,15.70
2018-03-20T21:21:20.433Z,16.90
2018-03-20T21:23:47.952Z,18.40
2018-03-20T21:26:15.449Z,21.43
2018-03-20T21:28:42.982Z,18.37
2018-03-20T21:31:10.485Z,18.67
2018-03-20T21:33:38.006Z,18.13
2018-03-20T21:36:08.197Z,17.80
2018-03-20T21:38:35.711Z,16.97
2018-03-20T21:41:03.985Z,18.47
2018-03-20T21:43:31.524Z,17.77
2018-03-20T21:45:59.012Z,19.33
2018-03-20T21:48:26.540Z,20.13
2018-03-20T21:50:54.035Z,17.53
2018-03-20T21:53:21.528Z,17.40
2018-03-20T21:55:49.040Z,15.33
2018-03-20T21:58:16.536Z,15.27
2018-03-20T22:00:44.045Z,14.73
2018-03-20T22:03:11.540Z,16.43
2018-03-20T22:05:39.821Z,41.37
2018-03-20T22:08:08.085Z,25.30
2018-03-20T22:10:35.600Z,16.43
2018-03-20T22:13:03.111Z,14.47
2018-03-20T22:15:30.620Z,13.50
2018-03-20T22:17:58.108Z,15.40
2018-03-20T22:20:26.377Z,15.20
2018-03-20T22:22:53.870Z,15.93
2018-03-20T22:25:21.397Z,15.47
2018-03-20T22:27:48.891Z,15.30
2018-03-20T22:30:17.180Z,14.77
2018-03-20T22:32:45.432Z,15.27
2018-03-20T22:35:12.915Z,15.00
2018-03-20T22:37:40.424Z,17.17
2018-03-20T22:40:08.676Z,14.70
2018-03-20T22:42:36.188Z,14.17
2018-03-20T22:45:03.696Z,15.57
2018-03-20T22:47:31.215Z,13.80
2018-03-20T22:49:59.484Z,14.37
2018-03-20T22:52:26.995Z,13.10
2018-03-20T22:54:54.492Z,14.90
2018-03-20T22:57:22.002Z,14.43
2018-03-20T22:59:49.493Z,14.60
2018-03-20T23:02:17.019Z,17.07
2018-03-20T23:04:44.512Z,15.73
2018-03-20T23:07:12.025Z,15.27
2018-03-20T23:09:39.519Z,14.50
2018-03-20T23:12:07.025Z,16.10
2018-03-20T23:14:35.312Z,16.40
2018-03-20T23:17:02.806Z,17.40
2018-03-20T23:19:30.330Z,17.13
2018-03-20T23:21:57.827Z,18.63
2018-03-20T23:24:25.340Z,18.20
2018-03-20T23:26:52.842Z,19.60
2018-03-20T23:29:20.362Z,19.13
2018-03-20T23:31:47.869Z,19.37
2018-03-20T23:34:15.386Z,19.10
2018-03-20T23:36:42.885Z,16.57
2018-03-20T23:39:10.394Z,14.63
2018-03-20T23:41:37.891Z,18.03
2018-03-20T23:44:06.187Z,19.63
2018-03-20T23:46:34.445Z,19.97
2018-03-20T23:49:01.941Z,18.40
2018-03-20T23:51:30.216Z,16.07
2018-03-20T23:53:57.717Z,18.93
2018-03-20T23:56:25.988Z,17.50
2018-03-20T23:58:54.250Z,19.17
